Time;durP1;ratioP1;P1;durP2;ratioP2;P2;SDS_P1;SDS_P2;PMS_P1;PMS_P2;Temp;Humidity;BMP_temperature;BMP_pressure;BME280_temperature;BME280_humidity;BME280_pressure;Samples;Min_cycle;Max_cycle;Signal;HPM_P1;HPM_P2
2023/04/21 00:01:54;;;;;;;26.70;6.50;;;;;;;6.48;100.00;99335.02;110470;1274;23259;-63
2023/04/21 00:04:22;;;;;;;20.50;5.90;;;;;;;6.48;100.00;99334.42;110454;1270;22726;-64
2023/04/21 00:06:52;;;;;;;22.50;6.30;;;;;;;6.54;100.00;99333.13;110436;1273;23422;-64
2023/04/21 00:09:21;;;;;;;20.00;5.60;;;;;;;6.61;100.00;99335.89;110454;1274;22239;-64
2023/04/21 00:11:49;;;;;;;20.20;4.70;;;;;;;6.65;100.00;99329.29;110444;1274;22295;-64
2023/04/21 00:14:18;;;;;;;26.30;5.50;;;;;;;6.68;100.00;99327.43;110365;1275;22419;-64
2023/04/21 00:16:46;;;;;;;14.90;4.80;;;;;;;6.72;100.00;99325.35;110405;1273;22326;-64
2023/04/21 00:19:14;;;;;;;21.30;5.30;;;;;;;6.78;100.00;99323.79;110461;1274;22427;-64
2023/04/21 00:21:42;;;;;;;25.70;5.50;;;;;;;6.80;100.00;99320.08;110442;1274;22303;-64
2023/04/21 00:24:11;;;;;;;20.40;5.40;;;;;;;6.76;100.00;99323.75;110423;1274;22260;-64
2023/04/21 00:26:39;;;;;;;24.80;5.70;;;;;;;6.69;100.00;99321.21;110426;1274;23211;-64
2023/04/21 00:29:07;;;;;;;25.60;5.90;;;;;;;6.68;100.00;99328.29;110284;1275;22325;-64
2023/04/21 00:31:35;;;;;;;18.00;5.40;;;;;;;6.68;100.00;99329.21;110408;1276;22267;-65
2023/04/21 00:34:05;;;;;;;27.30;5.20;;;;;;;6.62;100.00;99327.53;110465;1274;22974;-64
2023/04/21 00:36:33;;;;;;;20.50;5.60;;;;;;;6.55;100.00;99326.16;110360;1274;22261;-64
2023/04/21 00:39:01;;;;;;;26.50;4.80;;;;;;;6.56;100.00;99322.77;110403;1275;22252;-64
2023/04/21 00:41:29;;;;;;;21.20;5.10;;;;;;;6.58;100.00;99321.05;110325;1275;22938;-64
2023/04/21 00:44:05;;;;;;;20.80;5.30;;;;;;;6.54;100.00;99323.67;110363;1275;22314;-64
2023/04/21 00:46:34;;;;;;;25.30;5.10;;;;;;;6.54;100.00;99323.50;110405;1276;22179;-64
2023/04/21 00:49:04;;;;;;;18.90;5.10;;;;;;;6.53;100.00;99321.33;110435;1274;22397;-64
2023/04/21 00:51:33;;;;;;;24.30;5.50;;;;;;;6.47;100.00;99318.03;110221;1274;22475;-64
2023/04/21 00:54:03;;;;;;;23.10;5.50;;;;;;;6.45;100.00;99319.67;110433;1273;22468;-64
2023/04/21 00:56:32;;;;;;;16.90;4.80;;;;;;;6.45;100.00;99316.86;110364;1272;23021;-64
2023/04/21 00:59:02;;;;;;;16.40;4.80;;;;;;;6.39;100.00;99318.02;110383;1275;23012;-64
2023/04/21 01:01:31;;;;;;;20.40;4.40;;;;;;;6.32;100.00;99318.19;110441;1274;22384;-65
2023/04/21 01:04:00;;;;;;;20.00;4.90;;;;;;;6.31;100.00;99316.52;110415;1274;22211;-64
2023/04/21 01:06:31;;;;;;;19.90;4.60;;;;;;;6.32;100.00;99318.41;110341;1273;22907;-64
2023/04/21 01:08:59;;;;;;;21.80;5.00;;;;;;;6.27;100.00;99312.79;108735;1275;24260;-63
2023/04/21 01:11:28;;;;;;;21.30;5.00;;;;;;;6.20;100.00;99309.64;107470;1273;22564;-64
2023/04/21 01:13:56;;;;;;;20.20;5.30;;;;;;;6.20;100.00;99308.27;107507;1271;25350;-64
2023/04/21 01:16:25;;;;;;;21.40;5.20;;;;;;;6.19;100.00;99310.92;107389;1274;23663;-64
2023/04/21 01:18:54;;;;;;;24.00;4.80;;;;;;;6.13;100.00;99311.60;107004;1274;25334;-64
2023/04/21 01:21:22;;;;;;;22.10;4.50;;;;;;;6.06;100.00;99310.01;107226;1270;25490;-64
2023/04/21 01:23:51;;;;;;;20.00;4.50;;;;;;;6.05;100.00;99313.39;107137;1272;23727;-63
2023/04/21 01:26:20;;;;;;;20.30;4.80;;;;;;;6.05;100.00;99313.73;106985;1276;25879;-63
2023/04/21 01:28:49;;;;;;;21.80;4.40;;;;;;;6.01;100.00;99316.33;106936;1272;22519;-64
2023/04/21 01:31:17;;;;;;;16.10;3.80;;;;;;;5.99;100.00;99317.77;107040;1273;23792;-64
2023/04/21 01:33:46;;;;;;;21.20;4.90;;;;;;;6.04;100.00;99317.65;107394;1269;25353;-64
2023/04/21 01:36:16;;;;;;;17.00;4.40;;;;;;;6.07;100.00;99320.45;107278;1274;25350;-64
2023/04/21 01:38:44;;;;;;;15.80;4.70;;;;;;;6.02;100.00;99314.71;107112;1276;25587;-64
2023/04/21 01:41:13;;;;;;;22.40;4.60;;;;;;;5.98;100.00;99314.69;107242;1274;24184;-64
2023/04/21 01:43:41;;;;;;;17.80;5.70;;;;;;;5.93;100.00;99313.05;107421;1270;25395;-63
2023/04/21 01:46:10;;;;;;;14.80;5.30;;;;;;;5.84;100.00;99309.56;107058;1272;25359;-63
2023/04/21 01:48:38;;;;;;;22.90;6.20;;;;;;;5.78;100.00;99309.47;110171;1267;23238;-64
2023/04/21 01:51:07;;;;;;;20.00;6.80;;;;;;;5.78;100.00;99311.63;110401;1268;22263;-64
2023/04/21 01:53:35;;;;;;;35.30;12.10;;;;;;;5.73;100.00;99307.46;110297;1271;22189;-64
2023/04/21 01:56:03;;;;;;;36.40;14.20;;;;;;;5.66;100.00;99308.77;110459;1269;22409;-64
2023/04/21 01:58:32;;;;;;;37.70;14.10;;;;;;;5.63;100.00;99303.45;110398;1274;22473;-64
2023/04/21 02:01:00;;;;;;;39.70;12.80;;;;;;;5.64;100.00;99302.91;110439;1274;22376;-64
2023/04/21 02:03:29;;;;;;;33.20;12.10;;;;;;;5.61;100.00;99303.30;110421;1272;22267;-64
2023/04/21 02:05:58;;;;;;;31.30;9.90;;;;;;;5.57;100.00;99304.15;110445;1274;22195;-64
2023/04/21 02:08:26;;;;;;;32.30;11.00;;;;;;;5.57;100.00;99306.59;110459;1274;22280;-64
2023/04/21 02:10:54;;;;;;;35.40;9.90;;;;;;;5.61;100.00;99304.23;110473;1274;22269;-64
2023/04/21 02:13:23;;;;;;;26.70;7.20;;;;;;;5.61;100.00;99303.84;110386;1267;22706;-64
2023/04/21 02:15:51;;;;;;;22.20;8.00;;;;;;;5.61;100.00;99305.08;107043;1270;22564;-63
2023/04/21 02:18:38;;;;;;;20.70;6.80;;;;;;;5.66;100.00;99299.92;107104;1274;26159;-64
2023/04/21 02:21:07;;;;;;;17.30;5.10;;;;;;;5.68;100.00;99297.52;108740;1276;22879;-63
2023/04/21 02:23:36;;;;;;;24.40;11.30;;;;;;;5.70;100.00;99299.48;107442;1274;23430;-63
2023/04/21 02:26:04;;;;;;;31.10;10.70;;;;;;;5.70;100.00;99298.36;107657;1273;24238;-63
2023/04/21 02:28:34;;;;;;;36.00;13.30;;;;;;;5.74;100.00;99301.43;106872;1271;23670;-63
2023/04/21 02:31:03;;;;;;;36.40;18.80;;;;;;;5.78;100.00;99301.58;110413;1274;23088;-64
2023/04/21 02:33:34;;;;;;;57.60;29.20;;;;;;;5.75;100.00;99301.00;110438;1274;23016;-64
2023/04/21 02:36:03;;;;;;;49.50;31.90;;;;;;;5.75;100.00;99299.23;110437;1267;22305;-65
2023/04/21 02:38:32;;;;;;;51.30;31.30;;;;;;;5.77;100.00;99297.25;110403;1267;22825;-64
2023/04/21 02:41:00;;;;;;;49.20;29.30;;;;;;;5.70;100.00;99298.09;110498;1274;22331;-64
2023/04/21 02:43:28;;;;;;;44.30;25.60;;;;;;;5.63;100.00;99293.89;110492;1274;22681;-64
2023/04/21 02:45:56;;;;;;;26.10;12.80;;;;;;;5.62;100.00;99293.71;110511;1270;23325;-64
2023/04/21 02:48:25;;;;;;;25.90;12.80;;;;;;;5.65;100.00;99294.30;110459;1274;22499;-64
2023/04/21 02:50:54;;;;;;;20.90;6.80;;;;;;;5.62;100.00;99291.98;110399;1275;22420;-64
2023/04/21 02:53:22;;;;;;;27.50;6.20;;;;;;;5.60;100.00;99295.04;110435;1251;23138;-64
2023/04/21 02:55:51;;;;;;;16.50;5.60;;;;;;;5.65;100.00;99296.45;110408;1273;22205;-64
2023/04/21 02:58:19;;;;;;;23.70;7.10;;;;;;;5.71;100.00;99294.46;110444;1267;23039;-64
2023/04/21 03:00:48;;;;;;;40.20;19.20;;;;;;;5.69;100.00;99293.04;110376;1261;22213;-64
2023/04/21 03:03:16;;;;;;;42.60;29.90;;;;;;;5.66;100.00;99292.04;110528;1274;22283;-62
2023/04/21 03:05:45;;;;;;;61.10;40.90;;;;;;;5.68;100.00;99297.29;110395;1274;22326;-64
2023/04/21 03:08:13;;;;;;;41.30;28.20;;;;;;;5.70;100.00;99297.70;110407;1274;22318;-64
2023/04/21 03:10:41;;;;;;;37.50;24.50;;;;;;;5.72;100.00;99301.08;110403;1274;22542;-64
2023/04/21 03:13:09;;;;;;;34.30;17.80;;;;;;;5.70;100.00;99299.55;110393;1274;22387;-64
2023/04/21 03:15:38;;;;;;;29.30;13.40;;;;;;;5.71;100.00;99295.02;110404;1274;22222;-64
2023/04/21 03:18:06;;;;;;;28.40;11.40;;;;;;;5.72;100.00;99296.48;110390;1269;22537;-64
2023/04/21 03:20:34;;;;;;;19.40;10.30;;;;;;;5.74;100.00;99298.02;110420;1274;22458;-64
2023/04/21 03:23:02;;;;;;;28.80;11.00;;;;;;;5.75;100.00;99298.03;110440;1267;22335;-64
2023/04/21 03:25:31;;;;;;;28.30;8.00;;;;;;;5.75;100.00;99301.33;110455;1274;22242;-65
2023/04/21 03:28:00;;;;;;;25.10;7.70;;;;;;;5.76;100.00;99302.80;110378;1275;23295;-64
2023/04/21 03:30:28;;;;;;;20.20;7.40;;;;;;;5.81;100.00;99305.19;110398;1274;22342;-64
2023/04/21 03:32:57;;;;;;;24.40;8.80;;;;;;;5.85;100.00;99305.58;110401;1275;22323;-64
2023/04/21 03:35:26;;;;;;;29.00;9.20;;;;;;;5.89;100.00;99310.23;110422;1274;23084;-64
2023/04/21 03:37:54;;;;;;;23.80;9.90;;;;;;;5.86;100.00;99308.85;110374;1270;22242;-64
2023/04/21 03:40:23;;;;;;;26.40;9.90;;;;;;;5.83;100.00;99304.67;110331;1274;22335;-64
2023/04/21 03:42:51;;;;;;;28.70;10.70;;;;;;;5.84;100.00;99305.77;110374;1275;22350;-65
2023/04/21 03:45:21;;;;;;;32.60;10.30;;;;;;;5.89;100.00;99304.03;110424;1274;22197;-64
2023/04/21 03:47:53;;;;;;;29.80;11.00;;;;;;;5.94;100.00;99305.27;107292;1267;23377;-64
2023/04/21 03:50:22;;;;;;;33.80;9.60;;;;;;;5.96;100.00;99302.98;107111;1273;25239;-63
2023/04/21 03:52:51;;;;;;;29.30;10.40;;;;;;;5.93;100.00;99304.94;107170;1274;25368;-63
2023/04/21 03:55:19;;;;;;;24.50;8.00;;;;;;;5.90;100.00;99306.30;106816;1270;25430;-63
2023/04/21 03:57:47;;;;;;;30.90;8.70;;;;;;;5.89;100.00;99309.59;107198;1269;25531;-64
2023/04/21 04:00:16;;;;;;;20.50;6.70;;;;;;;5.95;100.00;99309.29;107491;1274;23219;-64
2023/04/21 04:02:45;;;;;;;21.90;7.50;;;;;;;6.04;100.00;99305.02;107111;1274;23220;-64
2023/04/21 04:05:14;;;;;;;29.40;7.90;;;;;;;6.07;100.00;99307.74;107079;1274;26151;-64
2023/04/21 04:07:43;;;;;;;27.30;7.80;;;;;;;6.04;100.00;99304.74;107604;1267;22574;-65
2023/04/21 04:10:11;;;;;;;22.70;7.20;;;;;;;6.04;100.00;99300.36;106641;1274;22521;-63
2023/04/21 04:12:40;;;;;;;27.60;7.10;;;;;;;6.11;100.00;99300.60;107683;1274;25245;-63
2023/04/21 04:15:08;;;;;;;24.90;6.90;;;;;;;6.18;100.00;99301.23;106955;1267;26528;-64
2023/04/21 04:17:37;;;;;;;24.20;6.50;;;;;;;6.20;100.00;99298.06;106819;1275;26178;-63
2023/04/21 04:20:07;;;;;;;22.10;7.10;;;;;;;6.19;100.00;99298.10;107139;1274;25354;-63
2023/04/21 04:22:35;;;;;;;26.10;7.80;;;;;;;6.24;100.00;99297.67;107060;1274;25241;-63
2023/04/21 04:25:04;;;;;;;25.50;7.40;;;;;;;6.32;100.00;99303.16;107139;1268;22530;-63
2023/04/21 04:27:33;;;;;;;26.40;7.80;;;;;;;6.36;100.00;99307.70;110405;1274;23079;-64
2023/04/21 04:30:02;;;;;;;31.00;7.00;;;;;;;6.39;100.00;99309.02;110413;1274;22491;-64
2023/04/21 04:32:32;;;;;;;23.70;6.30;;;;;;;6.45;100.00;99308.48;110488;1251;22490;-64
2023/04/21 04:35:01;;;;;;;20.10;5.20;;;;;;;6.57;100.00;99306.93;110460;1274;22312;-64
2023/04/21 04:37:30;;;;;;;20.70;5.60;;;;;;;6.66;100.00;99305.77;110445;1274;22217;-64
2023/04/21 04:39:59;;;;;;;21.90;5.40;;;;;;;6.71;100.00;99306.15;110431;1270;22336;-64
2023/04/21 04:42:27;;;;;;;16.40;4.80;;;;;;;6.73;100.00;99307.52;110416;1274;22392;-65
2023/04/21 04:44:56;;;;;;;19.30;5.30;;;;;;;6.79;100.00;99309.29;110400;1270;22915;-65
2023/04/21 04:47:24;;;;;;;23.80;5.10;;;;;;;6.86;100.00;99305.69;110447;1274;22203;-66
2023/04/21 04:49:52;;;;;;;20.50;4.80;;;;;;;6.92;100.00;99302.30;110456;1269;22327;-65
2023/04/21 04:52:21;;;;;;;20.20;5.40;;;;;;;6.93;100.00;99302.01;110408;1269;22980;-66
2023/04/21 04:54:49;;;;;;;16.00;5.00;;;;;;;6.97;100.00;99299.88;107092;1273;24279;-65
2023/04/21 04:57:17;;;;;;;23.40;6.10;;;;;;;7.09;100.00;99297.30;106864;1267;23724;-63
2023/04/21 04:59:46;;;;;;;19.60;5.70;;;;;;;7.13;100.00;99293.66;107143;1274;23413;-65
2023/04/21 05:02:15;;;;;;;21.60;5.90;;;;;;;7.12;100.00;99293.10;107107;1270;25462;-65
2023/04/21 05:04:43;;;;;;;21.10;5.90;;;;;;;7.20;100.00;99296.08;106734;1270;25484;-65
2023/04/21 05:07:12;;;;;;;19.10;6.20;;;;;;;7.24;100.00;99302.38;106841;1274;25291;-65
2023/04/21 05:09:40;;;;;;;21.20;5.60;;;;;;;7.23;100.00;99305.59;107171;1267;23707;-63
2023/04/21 05:12:08;;;;;;;21.30;6.30;;;;;;;7.30;100.00;99307.20;107392;1274;27189;-64
2023/04/21 05:14:37;;;;;;;27.20;6.10;;;;;;;7.39;100.00;99311.81;110378;1274;23313;-64
2023/04/21 05:17:05;;;;;;;20.50;5.50;;;;;;;7.45;100.00;99311.85;110435;1274;22502;-65
2023/04/21 05:19:36;;;;;;;20.40;6.60;;;;;;;7.56;100.00;99316.94;110413;1270;22216;-63
2023/04/21 05:22:07;;;;;;;16.90;5.50;;;;;;;7.84;100.00;99317.10;110449;1274;23004;-64
2023/04/21 05:24:36;;;;;;;21.50;4.80;;;;;;;8.15;100.00;99317.23;110465;1270;22427;-64
2023/04/21 05:27:04;;;;;;;20.80;5.20;;;;;;;8.47;100.00;99316.91;110480;1274;22234;-65
2023/04/21 05:29:33;;;;;;;24.70;6.10;;;;;;;8.72;100.00;99309.25;110416;1275;22231;-64
2023/04/21 05:32:01;;;;;;;18.40;5.80;;;;;;;8.93;100.00;99303.19;110463;1273;22375;-64
2023/04/21 05:34:30;;;;;;;22.00;5.20;;;;;;;9.12;100.00;99293.73;110450;1274;22489;-64
2023/04/21 05:36:58;;;;;;;20.50;5.50;;;;;;;9.38;100.00;99286.20;110484;1274;22204;-64
2023/04/21 05:39:27;;;;;;;23.40;6.10;;;;;;;9.66;100.00;99276.57;110463;1274;22291;-64
2023/04/21 05:41:55;;;;;;;27.30;6.00;;;;;;;9.92;100.00;99276.58;110388;1275;22454;-64
2023/04/21 05:44:24;;;;;;;20.20;5.00;;;;;;;10.19;100.00;99271.23;110371;1274;23189;-65
2023/04/21 05:46:52;;;;;;;20.80;4.90;;;;;;;10.51;100.00;99266.12;110425;1275;22369;-64
2023/04/21 05:49:21;;;;;;;18.10;4.60;;;;;;;10.82;100.00;99256.19;110457;1276;22575;-64
2023/04/21 05:51:49;;;;;;;19.40;5.00;;;;;;;10.94;100.00;99249.23;110266;1274;22260;-64
2023/04/21 05:54:18;;;;;;;17.30;4.60;;;;;;;11.12;100.00;99238.21;110479;1274;22423;-64
2023/04/21 05:56:47;;;;;;;18.90;5.00;;;;;;;11.33;100.00;99232.27;108212;1274;22805;-64
2023/04/21 05:59:15;;;;;;;22.70;4.50;;;;;;;11.45;100.00;99227.02;109641;1275;22597;-65
2023/04/21 06:01:43;;;;;;;25.20;5.20;;;;;;;11.46;100.00;99220.05;107410;1274;25344;-65
2023/04/21 06:04:12;;;;;;;20.50;4.20;;;;;;;11.54;100.00;99213.95;107199;1274;22514;-65
2023/04/21 06:06:41;;;;;;;21.10;4.80;;;;;;;11.61;100.00;99215.83;106873;1276;25564;-64
2023/04/21 06:09:09;;;;;;;21.90;4.80;;;;;;;11.72;100.00;99215.16;110426;1276;23012;-64
2023/04/21 06:11:38;;;;;;;20.40;4.50;;;;;;;11.88;100.00;99212.05;110491;1274;22905;-65
2023/04/21 06:14:06;;;;;;;19.90;4.90;;;;;;;11.96;100.00;99208.81;110468;1274;22955;-66
2023/04/21 06:16:35;;;;;;;17.00;3.90;;;;;;;12.13;100.00;99214.20;110430;1274;22299;-64
2023/04/21 06:19:03;;;;;;;17.30;4.90;;;;;;;12.25;100.00;99209.01;110500;1270;22270;-64
2023/04/21 06:21:32;;;;;;;17.20;4.60;;;;;;;12.38;100.00;99208.44;110427;1270;22528;-65
2023/04/21 06:24:00;;;;;;;16.20;4.00;;;;;;;12.61;100.00;99198.78;110461;1274;22223;-65
2023/04/21 06:26:29;;;;;;;18.40;5.10;;;;;;;12.71;100.00;99204.09;110422;1274;22355;-65
2023/04/21 06:28:57;;;;;;;26.90;4.80;;;;;;;12.78;100.00;99192.77;110476;1274;22480;-65
2023/04/21 06:31:25;;;;;;;20.50;4.00;;;;;;;12.79;100.00;99181.98;110470;1274;22353;-65
2023/04/21 06:33:54;;;;;;;17.20;3.90;;;;;;;12.82;100.00;99181.99;110426;1275;22189;-65
2023/04/21 06:36:22;;;;;;;20.50;3.70;;;;;;;12.96;100.00;99185.09;110432;1275;22936;-64
2023/04/21 06:38:50;;;;;;;20.70;5.50;;;;;;;13.16;100.00;99180.86;110398;1276;22221;-64
2023/04/21 06:41:18;;;;;;;14.00;3.50;;;;;;;13.39;100.00;99176.48;110421;1270;23285;-64
2023/04/21 06:43:47;;;;;;;16.90;4.60;;;;;;;13.64;100.00;99169.91;110441;1274;22223;-65
2023/04/21 06:46:15;;;;;;;29.40;4.40;;;;;;;13.75;100.00;99163.38;110475;1274;22200;-65
2023/04/21 06:48:43;;;;;;;21.10;4.00;;;;;;;13.68;100.00;99160.38;110387;1273;22271;-65
2023/04/21 06:51:11;;;;;;;18.30;4.00;;;;;;;13.77;100.00;99162.36;109190;1274;22522;-65
2023/04/21 06:53:40;;;;;;;21.10;3.90;;;;;;;13.98;100.00;99160.09;107572;1274;23885;-64
2023/04/21 06:56:08;;;;;;;16.40;3.30;;;;;;;14.16;100.00;99149.44;107541;1274;22520;-64
2023/04/21 06:58:36;;;;;;;23.70;4.00;;;;;;;14.14;100.00;99145.01;107559;1270;22517;-64
2023/04/21 07:01:04;;;;;;;18.50;3.60;;;;;;;14.22;100.00;99145.52;107568;1274;22615;-64
2023/04/21 07:03:33;;;;;;;19.70;3.50;;;;;;;14.34;100.00;99148.96;107714;1272;23547;-64
2023/04/21 07:06:01;;;;;;;23.40;4.10;;;;;;;14.45;100.00;99143.45;107623;1275;25261;-64
2023/04/21 07:08:30;;;;;;;15.40;3.00;;;;;;;14.35;100.00;99136.09;107787;1273;22526;-64
2023/04/21 07:10:58;;;;;;;27.30;4.70;;;;;;;14.18;100.00;99134.29;107619;1267;23764;-65
2023/04/21 07:13:27;;;;;;;22.70;3.60;;;;;;;14.04;100.00;99141.80;107633;1272;23335;-64
2023/04/21 07:15:55;;;;;;;20.10;3.70;;;;;;;14.08;100.00;99141.71;107572;1274;22638;-64
2023/04/21 07:18:23;;;;;;;17.00;3.60;;;;;;;14.15;100.00;99140.38;107766;1274;23482;-64
2023/04/21 07:20:51;;;;;;;19.70;2.60;;;;;;;14.14;100.00;99139.14;107661;1274;22523;-65
2023/04/21 07:23:20;;;;;;;17.70;3.40;;;;;;;14.19;100.00;99138.35;107754;1274;22519;-64
2023/04/21 07:28:27;;;;;;;24.50;3.90;;;;;;;14.38;100.00;99137.05;104417;1305;545162;-67
2023/04/21 07:30:55;;;;;;;18.30;2.90;;;;;;;14.35;100.00;99135.94;106717;1288;22552;-66
2023/04/21 07:33:24;;;;;;;16.20;3.40;;;;;;;14.32;100.00;99139.48;106700;1283;22937;-68
2023/04/21 07:35:52;;;;;;;14.20;3.00;;;;;;;14.37;100.00;99138.16;106566;1288;22525;-67
2023/04/21 07:38:20;;;;;;;21.30;4.10;;;;;;;14.45;100.00;99134.04;106635;1287;25435;-68
2023/04/21 07:40:49;;;;;;;17.30;4.10;;;;;;;14.53;100.00;99133.75;106648;1283;23096;-67
2023/04/21 07:43:18;;;;;;;16.10;3.90;;;;;;;14.56;100.00;99133.56;106705;1286;294810;-67
2023/04/21 07:45:47;;;;;;;21.60;4.10;;;;;;;14.67;100.00;99121.50;106923;1286;22980;-66
2023/04/21 07:48:15;;;;;;;19.30;3.90;;;;;;;14.76;100.00;99125.41;106807;1286;25336;-67
2023/04/21 07:50:44;;;;;;;24.00;4.10;;;;;;;14.78;100.00;99127.44;106826;1286;22649;-66
2023/04/21 07:53:12;;;;;;;20.30;4.20;;;;;;;14.84;100.00;99129.80;106905;1286;22560;-67
2023/04/21 07:55:40;;;;;;;19.80;4.90;;;;;;;14.95;100.00;99131.77;106825;1286;26136;-67
2023/04/21 07:58:09;;;;;;;24.10;5.30;;;;;;;14.96;100.00;99128.38;106971;1283;22573;-66
2023/04/21 08:00:37;;;;;;;20.30;4.20;;;;;;;15.09;100.00;99122.84;107238;1279;26858;-67
2023/04/21 08:03:06;;;;;;;19.00;3.80;;;;;;;15.15;100.00;99128.06;107213;1279;23503;-67
2023/04/21 08:05:34;;;;;;;21.00;3.90;;;;;;;15.24;100.00;99122.18;107341;1278;22656;-66
2023/04/21 08:08:08;;;;;;;15.30;4.90;;;;;;;15.43;100.00;99124.20;107340;1278;23363;-66
2023/04/21 08:10:36;;;;;;;17.70;3.50;;;;;;;15.56;100.00;99118.41;110131;1278;22920;-68
2023/04/21 08:13:05;;;;;;;18.30;5.50;;;;;;;15.64;100.00;99120.46;110169;1279;22970;-68
2023/04/21 08:15:33;;;;;;;17.10;4.00;;;;;;;15.58;100.00;99115.06;110000;1279;22824;-67
2023/04/21 08:18:02;;;;;;;15.90;3.40;;;;;;;15.38;100.00;99115.59;110169;1279;22318;-67
2023/04/21 08:20:30;;;;;;;24.60;9.90;;;;;;;15.20;100.00;99119.14;110143;1279;22229;-68
2023/04/21 08:22:58;;;;;;;15.40;5.60;;;;;;;15.03;100.00;99122.17;110160;1279;22331;-67
2023/04/21 08:25:27;;;;;;;21.40;4.80;;;;;;;14.90;100.00;99123.08;110145;1279;22206;-67
2023/04/21 08:27:55;;;;;;;18.70;3.30;;;;;;;14.93;100.00;99118.23;110150;1279;22193;-67
2023/04/21 08:30:25;;;;;;;12.80;3.50;;;;;;;15.07;100.00;99121.35;110131;1276;22247;-67
2023/04/21 08:32:54;;;;;;;18.40;2.90;;;;;;;15.27;100.00;99123.10;110169;1279;22225;-67
2023/04/21 08:35:23;;;;;;;17.00;3.00;;;;;;;15.45;100.00;99118.50;109515;1279;25328;-67
2023/04/21 08:37:51;;;;;;;17.40;3.30;;;;;;;15.67;100.00;99117.63;107138;1279;25328;-67
2023/04/21 08:40:22;;;;;;;16.90;3.30;;;;;;;15.67;100.00;99117.63;108101;1279;22533;-67
2023/04/21 08:42:51;;;;;;;14.20;3.30;;;;;;;15.56;100.00;99116.10;107240;1279;23121;-66
2023/04/21 08:45:19;;;;;;;16.40;3.30;;;;;;;15.44;100.00;99118.70;107247;1279;22547;-67
2023/04/21 08:47:48;;;;;;;21.60;8.20;;;;;;;15.37;100.00;99128.52;107092;1279;26644;-67
2023/04/21 08:50:16;;;;;;;28.80;3.70;;;;;;;15.29;100.00;99125.72;107192;1279;25798;-68
2023/04/21 08:52:44;;;;;;;20.60;4.40;;;;;;;15.07;100.00;99124.70;107256;1279;24373;-67
2023/04/21 08:55:12;;;;;;;14.60;3.00;;;;;;;14.92;100.00;99124.56;107468;1275;25510;-66
2023/04/21 08:57:41;;;;;;;17.70;3.50;;;;;;;14.87;100.00;99120.80;107599;1275;22590;-67
2023/04/21 09:00:10;;;;;;;18.00;3.80;;;;;;;14.86;100.00;99119.63;107447;1276;22681;-66
2023/04/21 09:02:57;;;;;;;18.20;3.50;;;;;;;14.97;100.00;99127.66;108066;1275;22763;-67
2023/04/21 09:05:31;;;;;;;12.50;3.40;;;;;;;15.01;100.00;99127.55;107575;1276;23870;-68
2023/04/21 09:08:13;;;;;;;16.50;3.00;;;;;;;14.92;100.00;99128.02;107502;1275;22528;-66
2023/04/21 09:10:45;;;;;;;20.70;3.10;;;;;;;14.74;100.00;99122.95;110413;1276;22216;-68
2023/04/21 09:13:14;;;;;;;17.50;3.10;;;;;;;14.56;100.00;99135.75;110471;1275;22301;-68
2023/04/21 09:15:46;;;;;;;17.80;2.90;;;;;;;14.39;100.00;99130.20;110405;1271;22480;-68
2023/04/21 09:18:19;;;;;;;15.20;2.90;;;;;;;14.28;100.00;99131.30;110447;1275;22313;-66
2023/04/21 09:20:50;;;;;;;21.20;3.60;;;;;;;14.28;100.00;99136.55;110458;1275;22342;-67
2023/04/21 09:23:19;;;;;;;16.60;3.20;;;;;;;14.37;100.00;99128.23;110395;1276;22266;-67
2023/04/21 09:25:48;;;;;;;17.30;2.80;;;;;;;14.36;100.00;99122.27;110399;1276;22686;-66
2023/04/21 09:28:16;;;;;;;14.80;3.00;;;;;;;14.41;100.00;99124.35;108377;1276;23328;-67
2023/04/21 09:30:44;;;;;;;14.60;2.60;;;;;;;14.41;100.00;99125.62;107485;1275;25259;-67
2023/04/21 09:33:18;;;;;;;18.90;2.80;;;;;;;14.34;100.00;99124.83;107326;1276;22519;-66
2023/04/21 09:35:59;;;;;;;27.20;3.60;;;;;;;14.35;100.00;99131.22;107381;1276;26499;-67
2023/04/21 09:38:28;;;;;;;14.60;3.60;;;;;;;14.39;100.00;99141.58;107493;1276;25325;-65
2023/04/21 09:40:58;;;;;;;15.20;2.30;;;;;;;14.42;100.00;99141.82;107560;1275;23079;-67
2023/04/21 09:43:27;;;;;;;13.80;2.70;;;;;;;14.47;100.00;99141.56;107571;1276;25315;-67
2023/04/21 09:45:55;;;;;;;18.40;2.80;;;;;;;14.46;100.00;99142.95;107586;1276;22531;-67
2023/04/21 09:48:26;;;;;;;14.00;4.10;;;;;;;14.38;100.00;99141.44;107319;1276;26496;-67
2023/04/21 09:50:55;;;;;;;18.00;5.30;;;;;;;14.39;100.00;99138.35;107331;1275;25073;-66
2023/04/21 09:53:26;;;;;;;16.10;3.00;;;;;;;14.48;100.00;99143.12;107446;1275;23874;-67
2023/04/21 09:55:55;;;;;;;15.00;2.40;;;;;;;14.59;100.00;99144.92;107595;1273;22576;-67
2023/04/21 09:58:24;;;;;;;17.90;3.30;;;;;;;14.60;100.00;99142.86;107509;1275;24246;-66
2023/04/21 10:00:52;;;;;;;13.40;3.10;;;;;;;14.60;100.00;99149.29;107835;1276;22575;-67
2023/04/21 10:03:20;;;;;;;12.20;2.80;;;;;;;14.60;100.00;99148.57;107821;1276;22518;-67
2023/04/21 10:05:49;;;;;;;17.60;3.00;;;;;;;14.59;100.00;99151.90;107537;1276;24365;-67
2023/04/21 10:08:17;;;;;;;15.00;2.90;;;;;;;14.56;100.00;99150.65;107501;1272;24257;-68
2023/04/21 10:10:46;;;;;;;13.70;2.30;;;;;;;14.40;100.00;99152.17;107543;1275;22554;-66
2023/04/21 10:13:17;;;;;;;18.00;2.50;;;;;;;14.29;100.00;99159.42;107542;1276;22548;-66
2023/04/21 10:15:45;;;;;;;16.20;2.80;;;;;;;14.27;100.00;99159.70;107421;1276;22546;-66
2023/04/21 10:18:18;;;;;;;12.80;2.50;;;;;;;14.30;100.00;99161.04;107484;1276;22638;-66
2023/04/21 10:21:09;;;;;;;15.30;2.70;;;;;;;14.31;100.00;99161.89;107480;1276;25147;-68
2023/04/21 10:23:42;;;;;;;12.50;2.40;;;;;;;14.32;100.00;99154.97;107513;1271;22693;-67
2023/04/21 10:26:17;;;;;;;13.40;2.60;;;;;;;14.27;100.00;99159.96;107501;1275;24346;-66
2023/04/21 10:28:55;;;;;;;15.90;3.50;;;;;;;14.22;100.00;99164.73;107543;1275;23232;-66
2023/04/21 10:31:33;;;;;;;15.20;3.30;;;;;;;14.24;100.00;99170.28;107535;1276;25080;-66
2023/04/21 10:34:07;;;;;;;14.70;2.70;;;;;;;14.28;100.00;99174.17;107528;1275;22610;-67
2023/04/21 10:36:45;;;;;;;14.70;2.60;;;;;;;14.24;100.00;99173.50;107529;1276;25421;-68
2023/04/21 10:39:35;;;;;;;10.10;2.30;;;;;;;14.13;100.00;99174.38;107466;1276;27421;-67
2023/04/21 10:42:12;;;;;;;14.80;2.50;;;;;;;14.04;100.00;99175.83;107538;1261;22738;-66
2023/04/21 10:44:51;;;;;;;11.30;2.60;;;;;;;13.97;100.00;99176.92;107545;1263;24342;-66
2023/04/21 10:47:27;;;;;;;14.40;2.50;;;;;;;13.92;100.00;99174.73;107495;1275;22926;-66
2023/04/21 10:49:56;;;;;;;17.40;2.70;;;;;;;14.00;100.00;99175.85;110441;1276;22257;-67
2023/04/21 10:52:32;;;;;;;14.20;2.90;;;;;;;14.03;100.00;99175.74;110418;1276;22171;-67
2023/04/21 10:55:00;;;;;;;14.90;2.90;;;;;;;13.93;100.00;99178.52;110434;1276;22228;-67
2023/04/21 10:57:33;;;;;;;18.00;3.90;;;;;;;13.85;100.00;99178.79;110421;1276;22256;-67
2023/04/21 11:00:05;;;;;;;13.60;2.70;;;;;;;13.78;100.00;99189.73;110414;1276;23128;-67
2023/04/21 11:02:34;;;;;;;18.70;3.00;;;;;;;13.74;100.00;99195.30;110438;1271;22216;-68
2023/04/21 11:05:08;;;;;;;12.60;2.30;;;;;;;13.65;100.00;99184.88;110425;1276;22274;-67
2023/04/21 11:07:37;;;;;;;14.50;2.90;;;;;;;13.53;100.00;99187.10;110436;1276;22200;-68
2023/04/21 11:10:06;;;;;;;14.60;3.10;;;;;;;13.43;100.00;99189.52;110357;1276;22243;-67
2023/04/21 11:12:36;;;;;;;11.60;2.70;;;;;;;13.34;100.00;99183.20;110403;1275;22174;-67
2023/04/21 11:15:08;;;;;;;13.30;2.30;;;;;;;13.33;100.00;99181.23;110451;1275;22206;-67
2023/04/21 11:17:42;;;;;;;13.10;2.40;;;;;;;13.39;100.00;99185.23;108348;1276;22557;-66
2023/04/21 11:20:10;;;;;;;12.80;2.30;;;;;;;13.50;100.00;99189.83;108161;1276;24192;-66
2023/04/21 11:22:39;;;;;;;10.20;2.20;;;;;;;13.61;100.00;99186.23;107561;1276;24298;-67
2023/04/21 11:25:15;;;;;;;13.50;2.80;;;;;;;13.63;100.00;99183.39;107786;1276;24207;-66